Emre Kose — 9HA2786 — position and weather

sailwx.info

Track history (hours):
 
Tides and Currents Weather Stations Pressure Air Temp Water Temp Dewpoint Dewpoint Depression Visibility Wind Speed Wind Dir Waves Ship Positions

Emre Kose

Last reported at 2017-Nov-16 14:52 UTC. Time now 2017-Nov-23 18:36 UTC.
Position N 46°15' E 030°55'.

Length 109 m; draft 6.9 m.

Type: Cargo ship. MMSI: 215692000.

Date/timePositionNaut miles runAvg speedWind from/ knotsBaromVisibWave heightAir tempDewpointWater temp
2017-Nov-16 14:52N 46°15' E 030°55'410.1
2017-Nov-16 14:27N 46°19' E 030°55'510.6
2017-Nov-16 13:58N 46°24' E 030°55'510.8
2017-Nov-16 13:28N 46°29' E 030°55'21 9.2
2017-Nov-16 11:10N 46°35' E 031°25'4 9.9
2017-Nov-16 10:48N 46°35' E 031°30'3 9.3
2017-Nov-16 10:30N 46°35' E 031°34'5 9.2
2017-Nov-16 10:00N 46°36' E 031°41'4 9.0
2017-Nov-16 09:30N 46°36' E 031°48'4 8.5
2017-Nov-16 09:00N 46°34' E 031°53'4 8.7
2017-Nov-16 08:31N 46°33' E 031°59'5 9.2
2017-Nov-16 08:00N 46°32' E 032°06'610.3
2017-Nov-16 07:27N 46°33' E 032°14'  
2017-Nov-14 02:08N 46°37' E 032°37'23 1.0
2017-Nov-13 02:01N 46°32' E 032°03'510.7
2017-Nov-13 01:31N 46°34' E 031°56'610.5
2017-Nov-13 00:54N 46°36' E 031°47'510.7
2017-Nov-13 00:28N 46°36' E 031°40'510.6
2017-Nov-13 00:00N 46°35' E 031°33'5 9.4
2017-Nov-12 23:26N 46°35' E 031°26'1910.2
2017-Nov-12 21:34N 46°33' E 030°58'1 7.6
2017-Nov-12 21:29N 46°33' E 030°57'4 7.6
2017-Nov-12 21:01N 46°29' E 030°57'8 1.9
2017-Nov-12 16:57N 46°22' E 031°02'0 0.0
2017-Nov-12 05:45N 46°22' E 031°02'0 0.1
2017-Nov-12 05:27N 46°22' E 031°02'0 0.0
2017-Nov-12 04:33N 46°22' E 031°02'0 0.0
2017-Nov-12 03:33N 46°22' E 031°02'0 0.1
2017-Nov-12 03:21N 46°22' E 031°02'0 0.0
2017-Nov-11 10:39N 46°22' E 031°02'0 0.0
2017-Nov-11 10:15N 46°22' E 031°02'0 0.0
2017-Nov-10 10:12N 46°22' E 031°02'0 0.0
2017-Nov-10 09:42N 46°22' E 031°02'13310.8
2017-Nov-09 21:25N 44°23' E 029°40'511.5
2017-Nov-09 21:00N 44°19' E 029°36'611.6
2017-Nov-09 20:30N 44°14' E 029°31'611.2
2017-Nov-09 20:00N 44°10' E 029°26'611.3
2017-Nov-09 19:30N 44°06' E 029°21'611.5
2017-Nov-09 19:00N 44°01' E 029°16'611.7
2017-Nov-09 18:30N 43°56' E 029°11'611.8
2017-Nov-09 18:00N 43°52' E 029°06'611.5
2017-Nov-09 17:30N 43°47' E 029°01'511.0
2017-Nov-09 17:00N 43°43' E 028°56'611.0
2017-Nov-09 16:30N 43°39' E 028°52'510.9
2017-Nov-09 16:00N 43°35' E 028°47'  
Track history (hours):
 
Tides and Currents Weather Stations Pressure Air Temp Water Temp Dewpoint Dewpoint Depression Visibility Wind Speed Wind Dir Waves Ship Positions

Emre Kose

Last reported at 2017-Nov-16 14:52 UTC. Time now 2017-Nov-23 18:36 UTC.
Position N 46°15' E 030°55'.

Length 109 m; draft 6.9 m.

Type: Cargo ship. MMSI: 215692000.

Date/timePositionNaut miles runAvg speedWind from/ knotsBaromVisibWave heightAir tempDewpointWater temp
2017-Nov-16 14:52N 46°15' E 030°55'410.1
2017-Nov-16 14:27N 46°19' E 030°55'510.6
2017-Nov-16 13:58N 46°24' E 030°55'510.8
2017-Nov-16 13:28N 46°29' E 030°55'21 9.2
2017-Nov-16 11:10N 46°35' E 031°25'4 9.9
2017-Nov-16 10:48N 46°35' E 031°30'3 9.3
2017-Nov-16 10:30N 46°35' E 031°34'5 9.2
2017-Nov-16 10:00N 46°36' E 031°41'4 9.0
2017-Nov-16 09:30N 46°36' E 031°48'4 8.5
2017-Nov-16 09:00N 46°34' E 031°53'4 8.7
2017-Nov-16 08:31N 46°33' E 031°59'5 9.2
2017-Nov-16 08:00N 46°32' E 032°06'610.3
2017-Nov-16 07:27N 46°33' E 032°14'  
2017-Nov-14 02:08N 46°37' E 032°37'23 1.0
2017-Nov-13 02:01N 46°32' E 032°03'510.7
2017-Nov-13 01:31N 46°34' E 031°56'610.5
2017-Nov-13 00:54N 46°36' E 031°47'510.7
2017-Nov-13 00:28N 46°36' E 031°40'510.6
2017-Nov-13 00:00N 46°35' E 031°33'5 9.4
2017-Nov-12 23:26N 46°35' E 031°26'1910.2
2017-Nov-12 21:34N 46°33' E 030°58'1 7.6
2017-Nov-12 21:29N 46°33' E 030°57'4 7.6
2017-Nov-12 21:01N 46°29' E 030°57'8 1.9
2017-Nov-12 16:57N 46°22' E 031°02'0 0.0
2017-Nov-12 05:45N 46°22' E 031°02'0 0.1
2017-Nov-12 05:27N 46°22' E 031°02'0 0.0
2017-Nov-12 04:33N 46°22' E 031°02'0 0.0
2017-Nov-12 03:33N 46°22' E 031°02'0 0.1
2017-Nov-12 03:21N 46°22' E 031°02'0 0.0
2017-Nov-11 10:39N 46°22' E 031°02'0 0.0
2017-Nov-11 10:15N 46°22' E 031°02'0 0.0
2017-Nov-10 10:12N 46°22' E 031°02'0 0.0
2017-Nov-10 09:42N 46°22' E 031°02'13310.8
2017-Nov-09 21:25N 44°23' E 029°40'511.5
2017-Nov-09 21:00N 44°19' E 029°36'611.6
2017-Nov-09 20:30N 44°14' E 029°31'611.2
2017-Nov-09 20:00N 44°10' E 029°26'611.3
2017-Nov-09 19:30N 44°06' E 029°21'611.5
2017-Nov-09 19:00N 44°01' E 029°16'611.7
2017-Nov-09 18:30N 43°56' E 029°11'611.8
2017-Nov-09 18:00N 43°52' E 029°06'611.5
2017-Nov-09 17:30N 43°47' E 029°01'511.0
2017-Nov-09 17:00N 43°43' E 028°56'611.0
2017-Nov-09 16:30N 43°39' E 028°52'510.9
2017-Nov-09 16:00N 43°35' E 028°47'  

Dump ship's entire track history